createdAt,value
2017-12-14T00:00:06.175Z,4.57
2017-12-14T00:02:34.697Z,3.87
2017-12-14T00:05:03.058Z,3.60
2017-12-14T00:07:31.603Z,3.80
2017-12-14T00:10:00.006Z,3.40
2017-12-14T00:12:28.408Z,3.40
2017-12-14T00:14:56.793Z,2.87
2017-12-14T00:17:25.275Z,3.20
2017-12-14T00:19:53.651Z,3.20
2017-12-14T00:22:27.979Z,3.17
2017-12-14T00:24:56.428Z,3.07
2017-12-14T00:27:24.852Z,3.30
2017-12-14T00:29:53.333Z,3.20
2017-12-14T00:32:21.692Z,3.13
2017-12-14T00:34:50.829Z,3.30
2017-12-14T00:37:19.290Z,4.07
2017-12-14T00:39:47.681Z,3.37
2017-12-14T00:42:15.770Z,3.00
2017-12-14T00:44:44.138Z,3.33
2017-12-14T00:47:12.624Z,3.40
2017-12-14T00:49:40.700Z,3.60
2017-12-14T00:52:08.811Z,3.23
2017-12-14T00:54:37.294Z,4.00
2017-12-14T00:57:05.337Z,3.07
2017-12-14T00:59:33.687Z,3.47
2017-12-14T01:02:01.728Z,4.10
2017-12-14T01:04:31.039Z,4.03
2017-12-14T01:06:59.440Z,4.00
2017-12-14T01:09:28.085Z,4.00
2017-12-14T01:11:57.208Z,3.70
2017-12-14T01:14:25.668Z,4.30
2017-12-14T01:16:54.013Z,4.13
2017-12-14T01:19:22.369Z,4.50
2017-12-14T01:21:51.006Z,4.23
2017-12-14T01:24:19.378Z,4.63
2017-12-14T01:26:48.612Z,4.20
2017-12-14T01:29:16.977Z,5.07
2017-12-14T01:31:45.324Z,5.33
2017-12-14T01:34:14.507Z,5.30
2017-12-14T01:36:42.939Z,4.53
2017-12-14T01:39:12.271Z,4.33
2017-12-14T01:41:40.777Z,4.90
2017-12-14T01:44:09.151Z,4.87
2017-12-14T01:46:38.493Z,4.87
2017-12-14T01:49:06.947Z,4.30
2017-12-14T01:51:36.361Z,4.30
2017-12-14T01:54:04.712Z,4.80
2017-12-14T01:56:33.827Z,4.40
2017-12-14T01:59:02.296Z,3.90
2017-12-14T02:01:31.778Z,4.40
2017-12-14T02:04:00.329Z,3.67
2017-12-14T02:06:28.819Z,3.70
2017-12-14T02:08:57.358Z,3.40
2017-12-14T02:11:25.873Z,3.77
2017-12-14T02:13:54.495Z,3.57
2017-12-14T02:16:23.738Z,3.50
2017-12-14T02:18:52.108Z,2.97
2017-12-14T02:21:20.595Z,3.67
2017-12-14T02:23:49.036Z,3.10
2017-12-14T02:26:17.857Z,3.07
2017-12-14T02:28:46.317Z,3.10
2017-12-14T02:31:15.576Z,3.60
2017-12-14T02:33:43.912Z,3.30
2017-12-14T02:36:12.453Z,2.67
2017-12-14T02:38:40.838Z,3.30
2017-12-14T02:41:09.418Z,3.10
2017-12-14T02:43:38.574Z,3.10
2017-12-14T02:46:07.041Z,2.53
2017-12-14T02:48:35.564Z,2.47
2017-12-14T02:51:04.044Z,2.10
2017-12-14T02:53:33.169Z,2.20
2017-12-14T02:56:01.589Z,2.47
2017-12-14T02:58:30.098Z,1.70
2017-12-14T03:00:58.574Z,1.60
2017-12-14T03:03:26.971Z,2.20
2017-12-14T03:05:56.310Z,1.70
2017-12-14T03:08:25.607Z,1.77
2017-12-14T03:10:53.631Z,1.53
2017-12-14T03:13:22.002Z,1.60
2017-12-14T03:15:50.518Z,1.67
2017-12-14T03:18:19.255Z,2.37
2017-12-14T03:20:47.658Z,1.47
2017-12-14T03:23:16.170Z,1.57
2017-12-14T03:25:44.875Z,1.70
2017-12-14T03:28:13.599Z,1.70
2017-12-14T03:30:42.032Z,1.73
2017-12-14T03:33:10.422Z,2.03
2017-12-14T03:35:38.762Z,2.60
2017-12-14T03:38:07.916Z,2.10
2017-12-14T03:40:36.295Z,2.10
2017-12-14T03:43:04.713Z,1.90
2017-12-14T03:45:33.226Z,1.90
2017-12-14T03:48:00.925Z,2.20
2017-12-14T03:50:29.396Z,2.30
2017-12-14T03:52:57.425Z,2.70
2017-12-14T03:55:25.841Z,2.83
2017-12-14T03:57:54.304Z,3.13
2017-12-14T04:00:22.338Z,3.53
2017-12-14T04:02:50.677Z,3.53
2017-12-14T04:05:19.110Z,3.17
2017-12-14T04:07:47.131Z,3.50
2017-12-14T04:10:14.945Z,3.10
2017-12-14T04:12:42.710Z,3.30
2017-12-14T04:15:10.472Z,3.50
2017-12-14T04:17:38.699Z,3.40
2017-12-14T04:20:06.750Z,3.30
2017-12-14T04:22:35.300Z,3.30
2017-12-14T04:25:03.320Z,2.90
2017-12-14T04:27:31.038Z,2.80
2017-12-14T04:29:59.066Z,2.10
2017-12-14T04:32:27.876Z,2.67
2017-12-14T04:34:55.899Z,2.27
2017-12-14T04:37:23.722Z,2.30
2017-12-14T04:39:51.803Z,2.10
2017-12-14T04:42:19.521Z,2.03
2017-12-14T04:44:47.997Z,1.90
2017-12-14T04:47:16.480Z,1.40
2017-12-14T04:49:45.102Z,1.50
2017-12-14T04:52:13.568Z,1.60
2017-12-14T04:54:41.615Z,1.37
2017-12-14T04:57:10.444Z,1.70
2017-12-14T04:59:38.688Z,1.77
2017-12-14T05:02:07.958Z,1.30
2017-12-14T05:04:36.306Z,1.33
2017-12-14T05:07:03.990Z,1.30
2017-12-14T05:09:32.452Z,1.50
2017-12-14T05:12:00.824Z,1.40
2017-12-14T05:14:28.869Z,1.23
2017-12-14T05:16:56.626Z,1.50
2017-12-14T05:19:25.539Z,2.20
2017-12-14T05:21:53.229Z,1.53
2017-12-14T05:24:21.570Z,1.83
2017-12-14T05:26:49.284Z,1.87
2017-12-14T05:29:17.308Z,2.20
2017-12-14T05:31:44.994Z,2.00
2017-12-14T05:34:13.245Z,2.30
2017-12-14T05:36:41.318Z,2.60
2017-12-14T05:39:09.700Z,2.77
2017-12-14T05:41:37.878Z,3.17
2017-12-14T05:44:05.726Z,4.23
2017-12-14T05:46:33.731Z,3.70
2017-12-14T05:49:01.865Z,4.40
2017-12-14T05:51:29.930Z,4.40
2017-12-14T05:53:57.939Z,4.70
2017-12-14T05:56:25.609Z,4.70
2017-12-14T05:58:53.311Z,4.40
2017-12-14T06:01:20.991Z,4.40
2017-12-14T06:03:49.271Z,3.30
2017-12-14T06:06:17.623Z,4.20
2017-12-14T06:08:46.410Z,4.47
2017-12-14T06:11:15.250Z,5.30
2017-12-14T06:13:42.939Z,5.33
2017-12-14T06:16:11.748Z,5.97
2017-12-14T06:18:39.763Z,7.63
2017-12-14T06:21:07.808Z,7.40
2017-12-14T06:23:35.490Z,6.20
2017-12-14T06:26:03.212Z,5.37
2017-12-14T06:28:31.328Z,5.77
2017-12-14T06:30:59.389Z,5.07
2017-12-14T06:33:27.447Z,4.73
2017-12-14T06:35:55.496Z,4.30
2017-12-14T06:38:23.206Z,3.60
2017-12-14T06:40:50.940Z,3.60
2017-12-14T06:43:19.139Z,4.00
2017-12-14T06:45:47.198Z,3.47
2017-12-14T06:48:14.928Z,3.63
2017-12-14T06:50:42.636Z,3.30
2017-12-14T06:53:11.650Z,2.60
2017-12-14T06:55:40.021Z,2.73
2017-12-14T06:58:07.743Z,2.93
2017-12-14T07:00:35.535Z,2.77
2017-12-14T07:03:15.025Z,3.10
2017-12-14T07:05:43.813Z,2.93
2017-12-14T07:08:11.837Z,2.90
2017-12-14T07:10:39.669Z,2.80
2017-12-14T07:13:07.433Z,2.83
2017-12-14T07:15:35.136Z,3.70
2017-12-14T07:18:03.188Z,3.10
2017-12-14T07:20:31.031Z,3.10
2017-12-14T07:22:59.250Z,3.03
2017-12-14T07:25:27.307Z,2.63
2017-12-14T07:27:55.033Z,2.60
2017-12-14T07:30:22.734Z,2.70
2017-12-14T07:32:50.430Z,2.83
2017-12-14T07:35:19.054Z,2.60
2017-12-14T07:37:47.055Z,3.23
2017-12-14T07:40:14.780Z,3.10
2017-12-14T07:42:54.423Z,3.20
2017-12-14T07:45:29.810Z,3.47
2017-12-14T07:48:00.830Z,2.97
2017-12-14T07:50:28.533Z,2.73
2017-12-14T07:52:56.249Z,3.07
2017-12-14T07:55:24.087Z,2.77
2017-12-14T07:57:51.807Z,3.90
2017-12-14T08:00:20.328Z,3.33
2017-12-14T08:02:48.085Z,3.10
2017-12-14T08:05:16.221Z,3.37
2017-12-14T08:07:43.960Z,3.20
2017-12-14T08:10:12.323Z,3.37
2017-12-14T08:12:40.373Z,3.30
2017-12-14T08:15:08.656Z,3.40
2017-12-14T08:17:37.224Z,3.40
2017-12-14T08:20:05.257Z,2.90
2017-12-14T08:22:33.728Z,3.00
2017-12-14T08:25:01.945Z,3.20
2017-12-14T08:27:29.651Z,3.43
2017-12-14T08:29:57.357Z,3.37
2017-12-14T08:32:26.070Z,2.90
2017-12-14T08:34:54.741Z,2.80
2017-12-14T08:37:23.642Z,2.40
2017-12-14T08:39:51.710Z,2.50
2017-12-14T08:42:19.448Z,3.17
2017-12-14T08:44:48.264Z,3.27
2017-12-14T08:47:16.019Z,3.03
2017-12-14T08:49:43.788Z,2.87
2017-12-14T08:52:12.270Z,3.30
2017-12-14T08:54:39.976Z,3.53
2017-12-14T08:57:07.728Z,3.30
2017-12-14T08:59:35.933Z,3.50
2017-12-14T09:02:03.680Z,3.53
2017-12-14T09:04:32.495Z,3.60
2017-12-14T09:07:00.958Z,3.13
2017-12-14T09:09:29.731Z,3.07
2017-12-14T09:11:57.893Z,3.77
2017-12-14T09:14:25.646Z,3.60
2017-12-14T09:16:54.631Z,4.27
2017-12-14T09:19:22.141Z,4.03
2017-12-14T09:21:50.630Z,3.33
2017-12-14T09:24:18.516Z,4.33
2017-12-14T09:26:46.207Z,3.50
2017-12-14T09:29:14.289Z,3.70
2017-12-14T09:31:42.778Z,4.80
2017-12-14T09:34:10.811Z,3.63
2017-12-14T09:36:38.616Z,4.57
2017-12-14T09:39:06.637Z,3.67
2017-12-14T09:41:34.668Z,3.53
2017-12-14T09:44:03.599Z,3.47
2017-12-14T09:46:31.358Z,3.50
2017-12-14T09:48:59.706Z,3.70
2017-12-14T09:51:28.214Z,3.40
2017-12-14T09:53:55.904Z,3.40
2017-12-14T09:56:24.309Z,4.00
2017-12-14T09:58:52.852Z,3.90
2017-12-14T10:01:20.575Z,3.43
2017-12-14T10:03:48.378Z,2.87
2017-12-14T10:06:16.070Z,2.57
2017-12-14T10:08:43.790Z,2.60
2017-12-14T10:11:11.837Z,2.40
2017-12-14T10:13:40.344Z,2.70
2017-12-14T10:16:08.032Z,1.93
2017-12-14T10:18:36.293Z,2.00
2017-12-14T10:21:03.998Z,1.83
2017-12-14T10:23:32.766Z,2.13
2017-12-14T10:26:00.892Z,1.67
2017-12-14T10:28:28.579Z,2.20
2017-12-14T10:30:56.268Z,2.03
2017-12-14T10:33:24.009Z,1.93
2017-12-14T10:35:52.040Z,2.10
2017-12-14T10:38:19.808Z,1.97
2017-12-14T10:40:47.863Z,2.00
2017-12-14T10:43:15.568Z,2.37
2017-12-14T10:45:43.893Z,1.90
2017-12-14T10:48:12.440Z,2.13
2017-12-14T10:50:40.237Z,1.90
2017-12-14T10:53:09.493Z,1.90
2017-12-14T10:55:37.651Z,2.70
2017-12-14T10:58:05.330Z,3.03
2017-12-14T11:00:39.251Z,2.70
2017-12-14T11:03:07.538Z,2.37
2017-12-14T11:05:35.172Z,3.83
2017-12-14T11:08:02.885Z,2.10
2017-12-14T11:10:30.613Z,2.60
2017-12-14T11:12:58.309Z,2.43
2017-12-14T11:15:27.098Z,2.43
2017-12-14T11:17:54.812Z,2.33
2017-12-14T11:20:22.508Z,2.40
2017-12-14T11:22:51.336Z,2.10
2017-12-14T11:25:19.581Z,2.10
2017-12-14T11:27:48.783Z,2.30
2017-12-14T11:30:16.487Z,2.20
2017-12-14T11:32:45.296Z,2.50
2017-12-14T11:35:13.740Z,2.23
2017-12-14T11:37:41.762Z,2.43
2017-12-14T11:40:10.240Z,2.20
2017-12-14T11:42:38.397Z,2.17
2017-12-14T11:52:52.363Z,2.60
2017-12-14T11:55:20.161Z,2.10
2017-12-14T11:57:47.869Z,2.20
2017-12-14T12:00:25.340Z,2.17
2017-12-14T12:02:53.086Z,2.10
2017-12-14T12:05:21.653Z,2.47
2017-12-14T12:07:50.202Z,2.73
2017-12-14T12:10:17.971Z,2.63
2017-12-14T12:12:46.162Z,2.40
2017-12-14T12:15:14.236Z,2.50
2017-12-14T12:17:41.928Z,2.97
2017-12-14T12:20:11.875Z,2.93
2017-12-14T12:22:39.918Z,2.50
2017-12-14T12:25:08.398Z,2.77
2017-12-14T12:27:37.067Z,2.57
2017-12-14T12:30:05.227Z,3.20
2017-12-14T12:32:33.536Z,3.10
2017-12-14T12:35:01.359Z,3.10
2017-12-14T12:37:29.406Z,3.00
2017-12-14T12:39:57.104Z,2.87
2017-12-14T12:42:25.203Z,3.10
2017-12-14T12:44:53.804Z,2.97
2017-12-14T12:47:21.619Z,2.83
2017-12-14T12:49:50.136Z,2.63
2017-12-14T12:52:18.324Z,2.50
2017-12-14T12:54:46.344Z,2.83
2017-12-14T12:57:16.265Z,3.07
2017-12-14T12:59:43.975Z,2.63
2017-12-14T13:02:11.756Z,2.20
2017-12-14T13:04:39.444Z,2.40
2017-12-14T13:07:07.863Z,2.10
2017-12-14T13:09:35.947Z,2.30
2017-12-14T13:12:03.814Z,2.40
2017-12-14T13:14:31.864Z,2.10
2017-12-14T13:16:59.949Z,2.07
2017-12-14T13:19:28.331Z,1.80
2017-12-14T13:21:56.356Z,1.77
2017-12-14T13:24:25.558Z,1.80
2017-12-14T13:26:54.442Z,2.00
2017-12-14T13:29:23.228Z,2.00
2017-12-14T13:31:51.296Z,1.80
2017-12-14T13:34:19.320Z,2.00
2017-12-14T13:36:47.374Z,1.97
2017-12-14T13:39:15.786Z,2.17
2017-12-14T13:41:43.752Z,2.27
2017-12-14T13:44:12.096Z,2.13
2017-12-14T13:46:40.140Z,2.30
2017-12-14T13:49:09.075Z,2.33
2017-12-14T13:51:37.115Z,2.23
2017-12-14T13:54:05.606Z,2.30
2017-12-14T13:56:33.639Z,2.40
2017-12-14T13:59:01.979Z,2.10
2017-12-14T14:01:29.907Z,2.20
2017-12-14T14:03:58.991Z,2.03
2017-12-14T14:06:28.118Z,2.40
2017-12-14T14:08:56.200Z,2.43
2017-12-14T14:11:24.588Z,2.30
2017-12-14T14:13:52.965Z,1.70
2017-12-14T14:16:21.405Z,1.93
2017-12-14T14:18:50.019Z,2.47
2017-12-14T14:21:19.374Z,2.47
2017-12-14T14:23:48.587Z,2.77
2017-12-14T14:26:18.075Z,2.70
2017-12-14T14:28:46.708Z,2.50
2017-12-14T14:31:15.424Z,2.10
2017-12-14T14:33:43.672Z,2.20
2017-12-14T14:36:11.255Z,2.03
2017-12-14T14:38:39.640Z,2.90
2017-12-14T14:41:08.011Z,2.50
2017-12-14T14:43:36.536Z,2.67
2017-12-14T14:46:04.925Z,2.87
2017-12-14T14:48:33.559Z,2.50
2017-12-14T14:51:01.992Z,2.63
2017-12-14T14:53:30.422Z,2.47
2017-12-14T14:55:58.807Z,2.43
2017-12-14T14:58:27.193Z,2.57
2017-12-14T15:00:56.316Z,2.53
2017-12-14T15:03:24.814Z,2.60
2017-12-14T15:05:53.211Z,2.90
2017-12-14T15:08:21.629Z,2.87
2017-12-14T15:10:50.067Z,2.40
2017-12-14T15:13:18.444Z,2.73
2017-12-14T15:15:46.805Z,2.80
2017-12-14T15:18:15.194Z,2.70
2017-12-14T15:20:43.562Z,2.40
2017-12-14T15:23:11.954Z,2.67
2017-12-14T15:25:40.583Z,2.73
2017-12-14T15:28:09.720Z,2.73
2017-12-14T15:30:38.066Z,2.23
2017-12-14T15:33:06.425Z,2.50
2017-12-14T15:35:34.788Z,2.10
2017-12-14T15:38:03.230Z,2.90
2017-12-14T15:40:31.292Z,2.63
2017-12-14T15:42:59.540Z,2.20
2017-12-14T15:45:28.677Z,2.40
2017-12-14T15:47:58.835Z,2.40
2017-12-14T15:50:27.191Z,2.30
2017-12-14T15:52:55.671Z,2.43
2017-12-14T15:55:24.035Z,2.00
2017-12-14T15:57:52.401Z,2.40
2017-12-14T16:00:20.763Z,2.13
2017-12-14T16:02:49.359Z,2.10
2017-12-14T16:05:17.837Z,2.10
2017-12-14T16:07:46.527Z,2.00
2017-12-14T16:10:14.979Z,2.27
2017-12-14T16:12:44.120Z,2.20
2017-12-14T16:15:12.575Z,2.37
2017-12-14T16:17:41.130Z,2.40
2017-12-14T16:20:10.257Z,2.30
2017-12-14T16:22:38.643Z,2.30
2017-12-14T16:25:07.035Z,2.13
2017-12-14T16:27:35.426Z,2.50
2017-12-14T16:30:03.439Z,2.13
2017-12-14T16:32:31.795Z,2.30
2017-12-14T16:35:01.862Z,2.20
2017-12-14T16:37:30.224Z,1.90
2017-12-14T16:39:58.574Z,2.00
2017-12-14T16:42:27.728Z,2.00
2017-12-14T16:44:56.239Z,2.20
2017-12-14T16:47:24.599Z,2.10
2017-12-14T16:49:53.144Z,2.30
2017-12-14T16:52:21.488Z,2.47
2017-12-14T16:54:49.913Z,2.50
2017-12-14T16:57:18.277Z,2.33
2017-12-14T16:59:46.824Z,2.17
2017-12-14T17:02:15.980Z,2.60
2017-12-14T17:04:44.330Z,2.10
2017-12-14T17:07:12.708Z,2.53
2017-12-14T17:09:41.184Z,2.40
2017-12-14T17:12:09.563Z,2.50
2017-12-14T17:14:38.092Z,2.63
2017-12-14T17:17:06.444Z,2.90
2017-12-14T17:19:34.697Z,3.13
2017-12-14T17:22:02.983Z,2.70
2017-12-14T17:24:31.323Z,2.80
2017-12-14T17:27:00.477Z,2.90
2017-12-14T17:29:28.855Z,2.80
2017-12-14T17:31:57.037Z,2.57
2017-12-14T17:34:25.436Z,2.80
2017-12-14T17:36:54.551Z,2.93
2017-12-14T17:39:22.924Z,2.40
2017-12-14T17:41:51.871Z,2.40
2017-12-14T17:44:20.334Z,2.40
2017-12-14T17:46:48.847Z,2.30
2017-12-14T17:49:17.236Z,2.43
2017-12-14T17:51:45.596Z,2.40
2017-12-14T17:54:13.962Z,3.00
2017-12-14T17:56:42.410Z,3.03
2017-12-14T17:59:10.799Z,2.83
2017-12-14T18:01:39.276Z,2.30
2017-12-14T18:04:07.714Z,2.87
2017-12-14T18:06:36.876Z,2.43
2017-12-14T18:09:04.575Z,2.43
2017-12-14T18:11:33.771Z,2.40
2017-12-14T18:14:03.004Z,2.37
2017-12-14T18:16:31.367Z,2.63
2017-12-14T18:18:59.713Z,2.67
2017-12-14T18:21:28.072Z,2.57
2017-12-14T18:23:57.306Z,4.50
2017-12-14T18:26:25.664Z,3.77
2017-12-14T18:28:54.116Z,3.37
2017-12-14T18:31:22.165Z,4.27
2017-12-14T18:33:50.651Z,4.47
2017-12-14T18:36:19.021Z,4.17
2017-12-14T18:38:47.415Z,4.60
2017-12-14T18:41:15.909Z,4.67
2017-12-14T18:43:44.594Z,3.97
2017-12-14T18:46:12.976Z,4.00
2017-12-14T18:48:41.146Z,3.57
2017-12-14T18:51:09.535Z,3.53
2017-12-14T18:53:37.565Z,3.73
2017-12-14T18:56:06.094Z,3.40
2017-12-14T18:58:34.584Z,3.20
2017-12-14T19:01:03.028Z,3.67
2017-12-14T19:03:31.378Z,4.20
2017-12-14T19:05:58.890Z,4.13
2017-12-14T19:08:27.779Z,3.33
2017-12-14T19:10:55.595Z,3.63
2017-12-14T19:13:23.362Z,3.63
2017-12-14T19:15:51.046Z,4.00
2017-12-14T19:18:19.094Z,4.40
2017-12-14T19:20:47.699Z,5.00
2017-12-14T19:23:16.088Z,4.70
2017-12-14T19:25:44.125Z,5.40
2017-12-14T19:28:12.526Z,5.47
2017-12-14T19:30:40.962Z,4.90
2017-12-14T19:33:09.354Z,5.43
2017-12-14T19:35:37.377Z,5.50
2017-12-14T19:38:05.714Z,5.07
2017-12-14T19:40:34.171Z,5.60
2017-12-14T19:43:02.218Z,5.33
2017-12-14T19:45:31.343Z,4.90
2017-12-14T19:47:59.689Z,5.37
2017-12-14T19:50:28.502Z,5.70
2017-12-14T19:52:57.546Z,6.20
2017-12-14T19:55:26.676Z,6.27
2017-12-14T19:57:54.560Z,6.37
2017-12-14T20:00:23.318Z,5.80
2017-12-14T20:02:51.987Z,5.57
2017-12-14T20:05:21.216Z,5.17
2017-12-14T20:07:50.333Z,5.00
2017-12-14T20:10:18.408Z,4.70
2017-12-14T20:12:46.858Z,6.00
2017-12-14T20:15:15.317Z,5.90
2017-12-14T20:17:44.120Z,5.77
2017-12-14T20:20:13.222Z,4.83
2017-12-14T20:22:40.932Z,4.40
2017-12-14T20:25:09.091Z,4.03
2017-12-14T20:27:37.488Z,4.00
2017-12-14T20:30:05.332Z,4.30
2017-12-14T20:32:33.806Z,4.30
2017-12-14T20:35:02.177Z,4.17
2017-12-14T20:37:30.206Z,3.93
2017-12-14T20:39:59.498Z,4.23
2017-12-14T20:42:28.603Z,3.90
2017-12-14T20:44:57.741Z,4.60
2017-12-14T20:47:25.826Z,5.10
2017-12-14T20:49:54.206Z,5.40
2017-12-14T20:52:21.983Z,4.60
2017-12-14T20:54:50.341Z,5.17
2017-12-14T20:57:18.821Z,5.50
2017-12-14T20:59:46.514Z,4.60
2017-12-14T21:02:14.882Z,4.90
2017-12-14T21:04:43.371Z,5.20
2017-12-14T21:07:12.483Z,5.07
2017-12-14T21:09:42.230Z,4.40
2017-12-14T21:12:10.607Z,4.37
2017-12-14T21:14:38.952Z,5.00
2017-12-14T21:17:08.198Z,5.10
2017-12-14T21:19:36.538Z,4.67
2017-12-14T21:22:05.699Z,4.50
2017-12-14T21:24:34.346Z,3.90
2017-12-14T21:27:02.686Z,3.57
2017-12-14T21:29:31.932Z,3.80
2017-12-14T21:32:00.372Z,3.10
2017-12-14T21:34:29.393Z,2.77
2017-12-14T21:36:57.874Z,3.43
2017-12-14T21:39:26.233Z,3.17
2017-12-14T21:41:55.905Z,3.33
2017-12-14T21:44:24.438Z,3.03
2017-12-14T21:46:53.123Z,2.20
2017-12-14T21:49:21.475Z,2.70
2017-12-14T21:51:49.846Z,1.97
2017-12-14T21:54:19.047Z,2.20
2017-12-14T21:56:47.518Z,2.40
2017-12-14T21:59:16.629Z,2.40
2017-12-14T22:01:44.979Z,2.20
2017-12-14T22:04:13.529Z,2.30
2017-12-14T22:06:42.047Z,1.83
2017-12-14T22:09:11.780Z,2.43
2017-12-14T22:11:40.297Z,2.07
2017-12-14T22:14:08.206Z,2.50
2017-12-14T22:16:37.129Z,2.40
2017-12-14T22:19:05.335Z,3.90
2017-12-14T22:21:33.892Z,3.83
2017-12-14T22:24:02.494Z,4.50
2017-12-14T22:26:30.843Z,4.07
2017-12-14T22:28:59.218Z,3.77
2017-12-14T22:31:27.279Z,3.70
2017-12-14T22:33:55.804Z,3.90
2017-12-14T22:36:24.337Z,4.33
2017-12-14T22:38:53.132Z,6.00
2017-12-14T22:41:21.496Z,5.10
2017-12-14T22:43:50.633Z,4.20
2017-12-14T22:46:18.991Z,3.30
2017-12-14T22:48:48.193Z,3.47
2017-12-14T22:51:16.542Z,3.33
2017-12-14T22:53:45.644Z,3.00
2017-12-14T22:56:14.310Z,2.47
2017-12-14T22:58:43.446Z,2.60
2017-12-14T23:01:11.828Z,2.73
2017-12-14T23:03:40.320Z,2.40
2017-12-14T23:06:08.704Z,2.37
2017-12-14T23:08:37.043Z,2.60
2017-12-14T23:11:05.701Z,2.60
2017-12-14T23:13:34.581Z,2.63
2017-12-14T23:16:02.596Z,2.43
2017-12-14T23:18:30.975Z,2.50
2017-12-14T23:20:59.487Z,2.50
2017-12-14T23:23:27.881Z,2.60
2017-12-14T23:25:56.282Z,2.73
2017-12-14T23:28:24.823Z,2.53
2017-12-14T23:30:53.174Z,3.30
2017-12-14T23:33:21.772Z,2.97
2017-12-14T23:35:50.344Z,3.33
2017-12-14T23:38:18.727Z,3.70
2017-12-14T23:40:46.791Z,3.57
2017-12-14T23:43:15.168Z,3.73
2017-12-14T23:45:43.551Z,3.47
2017-12-14T23:48:11.912Z,3.60
2017-12-14T23:50:40.271Z,4.93
2017-12-14T23:53:09.190Z,5.07
2017-12-14T23:55:37.559Z,4.63
2017-12-14T23:58:05.924Z,4.77
